createdAt,value
2019-05-11T00:01:31.241Z,75.30
2019-05-11T00:03:59.777Z,75.40
2019-05-11T00:06:28.329Z,75.60
2019-05-11T00:08:56.894Z,75.50
2019-05-11T00:11:27.181Z,75.60
2019-05-11T00:13:57.022Z,75.60
2019-05-11T00:16:25.911Z,75.60
2019-05-11T00:18:54.447Z,75.60
2019-05-11T00:21:22.982Z,75.60
2019-05-11T00:23:51.530Z,75.50
2019-05-11T00:26:20.067Z,75.50
2019-05-11T00:28:51.707Z,75.50
2019-05-11T00:31:20.751Z,75.60
2019-05-11T00:33:49.487Z,75.60
2019-05-11T00:36:18.971Z,75.60
2019-05-11T00:38:48.958Z,75.70
2019-05-11T00:41:19.821Z,75.50
2019-05-11T00:43:52.211Z,75.60
2019-05-11T00:46:20.787Z,75.60
2019-05-11T00:48:50.676Z,76.40
2019-05-11T00:51:21.178Z,75.60
2019-05-11T00:53:53.649Z,75.50
2019-05-11T00:56:22.116Z,75.60
2019-05-11T00:58:51.083Z,75.70
2019-05-11T01:01:19.931Z,75.70
2019-05-11T01:03:52.378Z,75.70
2019-05-11T01:06:20.946Z,75.80
2019-05-11T01:08:55.407Z,75.80
2019-05-11T01:11:24.763Z,75.90
2019-05-11T01:13:55.197Z,75.70
2019-05-11T01:16:26.536Z,75.70
2019-05-11T01:18:55.194Z,75.70
2019-05-11T01:21:23.864Z,75.80
2019-05-11T01:23:52.351Z,75.70
2019-05-11T01:26:20.811Z,75.60
2019-05-11T01:28:50.068Z,75.80
2019-05-11T01:31:18.635Z,75.70
2019-05-11T01:33:47.254Z,75.60
2019-05-11T01:36:16.670Z,75.70
2019-05-11T01:38:45.796Z,75.50
2019-05-11T01:41:14.320Z,75.50
2019-05-11T01:43:44.658Z,75.40
2019-05-11T01:46:13.170Z,75.50
2019-05-11T01:48:43.771Z,75.40
2019-05-11T01:51:12.248Z,75.40
2019-05-11T01:53:40.837Z,75.40
2019-05-11T01:56:09.297Z,75.50
2019-05-11T01:58:37.804Z,75.50
2019-05-11T02:01:09.096Z,75.50
2019-05-11T02:03:39.319Z,75.50
2019-05-11T02:06:09.549Z,75.50
2019-05-11T02:08:40.993Z,75.40
2019-05-11T02:11:15.759Z,75.60
2019-05-11T02:13:39.773Z,75.60
2019-05-11T02:16:08.358Z,75.70
2019-05-11T02:18:36.883Z,75.60
2019-05-11T02:21:05.450Z,75.80
2019-05-11T02:23:53.351Z,75.70
2019-05-11T02:26:21.818Z,76.00
2019-05-11T02:28:50.266Z,76.90
2019-05-11T02:31:18.725Z,76.00
2019-05-11T02:33:54.353Z,76.10
2019-05-11T02:36:23.497Z,76.40
2019-05-11T02:38:51.994Z,76.20
2019-05-11T02:41:35.340Z,76.20
2019-05-11T02:43:51.905Z,76.30
2019-05-11T02:46:21.503Z,76.30
2019-05-11T02:48:51.924Z,76.30
2019-05-11T02:51:21.826Z,76.30
2019-05-11T02:53:52.657Z,76.20
2019-05-11T02:56:21.961Z,76.10
2019-05-11T02:58:52.638Z,76.10
2019-05-11T03:01:21.146Z,76.10
2019-05-11T03:03:51.319Z,76.10
2019-05-11T03:06:20.471Z,76.30
2019-05-11T03:08:48.988Z,76.40
2019-05-11T03:11:17.515Z,76.60
2019-05-11T03:13:46.061Z,76.80
2019-05-11T03:16:14.551Z,77.00
2019-05-11T03:18:43.058Z,77.20
2019-05-11T03:21:11.615Z,77.20
2019-05-11T03:23:41.943Z,77.20
2019-05-11T03:26:10.692Z,77.30
2019-05-11T03:28:41.108Z,77.40
2019-05-11T03:31:09.613Z,77.30
2019-05-11T03:33:39.014Z,77.30
2019-05-11T03:36:07.553Z,77.30
2019-05-11T03:38:37.125Z,77.30
2019-05-11T03:41:09.321Z,77.40
2019-05-11T03:43:37.837Z,77.50
2019-05-11T03:46:06.330Z,77.60
2019-05-11T03:48:35.222Z,77.60
2019-05-11T03:51:05.161Z,77.70
2019-05-11T03:53:33.924Z,77.70
2019-05-11T03:56:02.380Z,77.80
2019-05-11T03:58:30.916Z,77.80
2019-05-11T04:01:01.135Z,77.90
2019-05-11T04:03:30.184Z,77.90
2019-05-11T04:06:00.243Z,78.00
2019-05-11T04:08:31.577Z,78.00
2019-05-11T04:11:00.107Z,78.00
2019-05-11T04:13:29.355Z,78.00
2019-05-11T04:15:57.854Z,78.00
2019-05-11T04:18:26.337Z,78.10
2019-05-11T04:20:56.286Z,78.20
2019-05-11T04:23:24.927Z,78.20
2019-05-11T04:25:54.332Z,78.30
2019-05-11T04:28:22.851Z,78.30
2019-05-11T04:30:52.947Z,78.30
2019-05-11T04:33:21.496Z,78.40
2019-05-11T04:35:52.144Z,78.30
2019-05-11T04:38:21.833Z,78.40
2019-05-11T04:40:51.646Z,78.20
2019-05-11T04:43:20.215Z,78.20
2019-05-11T04:45:52.036Z,78.20
2019-05-11T04:48:20.525Z,78.30
2019-05-11T04:50:52.310Z,78.20
2019-05-11T04:53:20.849Z,78.30
2019-05-11T04:55:51.655Z,78.30
2019-05-11T04:58:20.109Z,79.10
2019-05-11T05:00:48.620Z,78.30
2019-05-11T05:03:17.106Z,78.20
2019-05-11T05:05:45.588Z,78.40
2019-05-11T05:08:20.951Z,78.30
2019-05-11T05:10:52.403Z,78.20
2019-05-11T05:13:23.285Z,78.20
2019-05-11T05:15:51.773Z,78.20
2019-05-11T05:18:20.265Z,78.00
2019-05-11T05:20:48.721Z,77.90
2019-05-11T05:23:18.711Z,77.80
2019-05-11T05:25:47.193Z,77.80
2019-05-11T05:28:17.262Z,77.60
2019-05-11T05:30:45.775Z,77.40
2019-05-11T05:33:14.266Z,77.30
2019-05-11T05:35:42.745Z,77.20
2019-05-11T05:38:12.587Z,76.90
2019-05-11T05:40:42.879Z,76.70
2019-05-11T05:43:25.886Z,76.70
2019-05-11T05:45:46.857Z,76.30
2019-05-11T05:48:15.368Z,76.20
2019-05-11T05:50:47.967Z,76.30
2019-05-11T05:53:17.638Z,76.10
2019-05-11T05:55:46.145Z,76.00
2019-05-11T05:58:14.680Z,75.90
2019-05-11T06:00:43.150Z,75.70
2019-05-11T06:03:11.714Z,75.70
2019-05-11T06:05:42.765Z,75.30
2019-05-11T06:08:12.461Z,75.00
2019-05-11T06:11:01.728Z,74.80
2019-05-11T06:13:44.478Z,75.20
2019-05-11T06:16:00.594Z,74.30
2019-05-11T06:18:30.798Z,74.30
2019-05-11T06:20:59.299Z,74.10
2019-05-11T06:23:27.915Z,73.60
2019-05-11T06:25:57.238Z,73.60
2019-05-11T06:28:25.692Z,73.20
2019-05-11T06:30:55.777Z,72.90
2019-05-11T06:33:24.402Z,72.70
2019-05-11T06:35:54.201Z,72.40
2019-05-11T06:38:24.230Z,72.20
2019-05-11T06:40:52.757Z,72.10
2019-05-11T06:43:21.333Z,71.90
2019-05-11T06:45:51.537Z,71.70
2019-05-11T06:48:20.165Z,71.30
2019-05-11T06:50:49.854Z,70.70
2019-05-11T06:53:18.557Z,69.90
2019-05-11T06:55:47.579Z,69.40
2019-05-11T06:58:16.640Z,69.10
2019-05-11T07:00:45.228Z,69.00
2019-05-11T07:03:14.607Z,68.50
2019-05-11T07:08:40.221Z,67.50
2019-05-11T07:11:08.826Z,66.60
2019-05-11T07:13:37.348Z,65.80
2019-05-11T07:16:05.846Z,65.60
2019-05-11T07:18:34.404Z,65.40
2019-05-11T07:21:03.515Z,65.20
2019-05-11T07:23:36.287Z,64.80
2019-05-11T07:26:07.131Z,64.40
2019-05-11T07:28:36.531Z,65.10
2019-05-11T07:31:06.676Z,64.60
2019-05-11T07:33:35.222Z,64.50
2019-05-11T07:36:04.601Z,65.00
2019-05-11T07:38:33.084Z,64.00
2019-05-11T07:41:02.214Z,64.10
2019-05-11T07:43:30.670Z,63.40
2019-05-11T07:45:59.442Z,63.30
2019-05-11T07:48:30.779Z,63.30
2019-05-11T07:51:02.411Z,62.90
2019-05-11T07:53:32.739Z,62.90
2019-05-11T07:56:02.735Z,63.10
2019-05-11T07:58:31.211Z,63.40
2019-05-11T08:00:59.838Z,62.70
2019-05-11T08:03:28.509Z,62.50
2019-05-11T08:05:58.237Z,62.30
2019-05-11T08:08:29.967Z,62.20
2019-05-11T08:10:58.753Z,61.90
2019-05-11T08:13:28.230Z,61.60
2019-05-11T08:15:58.947Z,61.70
2019-05-11T08:18:28.201Z,61.80
2019-05-11T08:20:58.311Z,61.70
2019-05-11T08:23:28.505Z,61.30
2019-05-11T08:26:05.000Z,60.80
2019-05-11T08:28:33.486Z,60.60
2019-05-11T08:31:02.076Z,60.60
2019-05-11T08:33:39.006Z,60.60
2019-05-11T08:36:08.370Z,60.80
2019-05-11T08:38:40.070Z,60.30
2019-05-11T08:41:11.367Z,60.70
2019-05-11T08:43:39.891Z,60.40
2019-05-11T08:46:09.645Z,60.80
2019-05-11T08:48:38.822Z,60.80
2019-05-11T08:51:08.363Z,61.10
2019-05-11T08:53:38.854Z,60.90
2019-05-11T08:56:11.166Z,61.00
2019-05-11T08:58:39.194Z,60.00
2019-05-11T09:01:08.836Z,59.80
2019-05-11T09:03:40.613Z,59.50
2019-05-11T09:06:09.260Z,59.40
2019-05-11T09:08:38.815Z,59.50
2019-05-11T09:11:08.390Z,59.60
2019-05-11T09:13:39.387Z,59.50
2019-05-11T09:16:08.049Z,59.00
2019-05-11T09:18:38.672Z,58.40
2019-05-11T09:21:09.089Z,59.70
2019-05-11T09:23:40.715Z,58.60
2019-05-11T09:26:08.709Z,58.50
2019-05-11T09:28:38.469Z,58.40
2019-05-11T09:31:08.539Z,58.00
2019-05-11T09:33:38.619Z,58.10
2019-05-11T09:36:08.791Z,57.60
2019-05-11T09:38:38.917Z,57.60
2019-05-11T09:41:12.042Z,57.40
2019-05-11T09:43:40.366Z,57.00
2019-05-11T09:46:11.278Z,57.50
2019-05-11T09:48:41.353Z,57.60
2019-05-11T09:51:10.928Z,57.20
2019-05-11T09:53:40.956Z,57.10
2019-05-11T09:56:09.565Z,57.10
2019-05-11T09:58:38.628Z,56.90
2019-05-11T10:01:08.855Z,57.40
2019-05-11T10:03:38.677Z,56.60
2019-05-11T10:06:08.319Z,56.00
2019-05-11T10:08:39.397Z,56.10
2019-05-11T10:11:09.045Z,56.10
2019-05-11T10:13:38.475Z,55.50
2019-05-11T10:16:10.636Z,55.60
2019-05-11T10:18:41.225Z,54.90
2019-05-11T10:21:09.682Z,54.40
2019-05-11T10:23:42.155Z,54.90
2019-05-11T10:26:08.569Z,54.20
2019-05-11T10:28:38.910Z,54.00
2019-05-11T10:31:08.557Z,53.80
2019-05-11T10:33:38.361Z,53.20
2019-05-11T10:36:08.288Z,52.90
2019-05-11T10:38:38.052Z,52.50
2019-05-11T10:41:08.742Z,51.80
2019-05-11T10:43:38.086Z,51.50
2019-05-11T10:46:18.737Z,52.00
2019-05-11T10:48:38.846Z,51.70
2019-05-11T10:51:08.316Z,51.40
2019-05-11T10:53:38.407Z,51.10
2019-05-11T10:56:08.727Z,51.70
2019-05-11T10:58:37.966Z,51.90
2019-05-11T11:01:08.747Z,51.10
2019-05-11T11:03:37.754Z,50.10
2019-05-11T11:06:08.440Z,51.40
2019-05-11T11:08:38.331Z,50.70
2019-05-11T11:11:08.146Z,50.30
2019-05-11T11:13:38.785Z,49.60
2019-05-11T11:16:08.427Z,50.30
2019-05-11T11:18:38.193Z,50.30
2019-05-11T11:21:08.639Z,49.60
2019-05-11T11:23:38.492Z,49.40
2019-05-11T11:26:08.225Z,49.80
2019-05-11T11:28:38.425Z,50.00
2019-05-11T11:31:08.438Z,50.10
2019-05-11T11:33:38.278Z,49.70
2019-05-11T11:36:08.507Z,48.70
2019-05-11T11:38:39.593Z,48.90
2019-05-11T11:41:08.055Z,49.80
2019-05-11T11:43:37.762Z,49.50
2019-05-11T11:46:08.383Z,49.00
2019-05-11T11:48:38.573Z,48.90
2019-05-11T11:51:08.071Z,48.60
2019-05-11T11:53:38.573Z,48.70
2019-05-11T11:56:08.537Z,49.00
2019-05-11T11:58:38.128Z,49.00
2019-05-11T12:01:08.222Z,48.70
2019-05-11T12:03:37.989Z,48.40
2019-05-11T12:06:08.709Z,48.50
2019-05-11T12:08:38.897Z,48.10
2019-05-11T12:11:07.941Z,47.50
2019-05-11T12:13:38.408Z,47.20
2019-05-11T12:16:08.483Z,47.40
2019-05-11T12:18:38.060Z,48.20
2019-05-11T12:21:08.016Z,47.50
2019-05-11T12:23:38.071Z,47.70
2019-05-11T12:26:08.509Z,46.60
2019-05-11T12:28:38.228Z,47.00
2019-05-11T12:31:08.745Z,46.90
2019-05-11T12:33:38.571Z,46.40
2019-05-11T12:36:07.940Z,45.80
2019-05-11T12:38:58.026Z,46.10
2019-05-11T12:41:28.380Z,46.10
2019-05-11T12:43:57.802Z,45.20
2019-05-11T12:46:27.673Z,45.30
2019-05-11T12:48:58.854Z,45.10
2019-05-11T12:51:27.691Z,45.20
2019-05-11T12:53:57.631Z,45.40
2019-05-11T12:56:27.690Z,45.40
2019-05-11T12:58:58.251Z,44.50
2019-05-11T13:01:28.919Z,44.30
2019-05-11T13:03:59.069Z,44.80
2019-05-11T13:06:28.060Z,44.10
2019-05-11T13:08:58.771Z,43.50
2019-05-11T13:11:28.554Z,43.50
2019-05-11T13:13:58.548Z,43.60
2019-05-11T13:16:29.819Z,43.20
2019-05-11T13:18:59.582Z,43.30
2019-05-11T13:21:28.655Z,42.80
2019-05-11T13:23:58.464Z,42.40
2019-05-11T13:26:28.398Z,43.00
2019-05-11T13:28:58.414Z,42.50
2019-05-11T13:31:28.786Z,42.90
2019-05-11T13:33:58.505Z,43.20
2019-05-11T13:36:28.651Z,43.00
2019-05-11T13:38:58.727Z,43.60
2019-05-11T13:41:28.205Z,43.30
2019-05-11T13:43:57.676Z,42.30
2019-05-11T13:46:28.154Z,41.80
2019-05-11T13:48:57.955Z,41.80
2019-05-11T13:51:28.532Z,42.00
2019-05-11T13:53:58.450Z,41.20
2019-05-11T13:56:28.490Z,41.40
2019-05-11T13:58:59.609Z,41.80
2019-05-11T14:01:28.104Z,40.60
2019-05-11T14:03:58.491Z,41.00
2019-05-11T14:06:28.776Z,40.50
2019-05-11T14:08:58.733Z,39.80
2019-05-11T14:11:28.599Z,40.50
2019-05-11T14:13:58.488Z,39.80
2019-05-11T14:16:27.813Z,39.60
2019-05-11T14:18:57.812Z,39.00
2019-05-11T14:21:27.957Z,38.40
2019-05-11T14:23:58.656Z,38.10
2019-05-11T14:26:28.059Z,37.30
2019-05-11T14:28:58.382Z,36.50
2019-05-11T14:31:27.920Z,36.60
2019-05-11T14:33:57.907Z,36.40
2019-05-11T14:36:28.153Z,36.60
2019-05-11T14:38:58.868Z,36.20
2019-05-11T14:41:28.545Z,35.20
2019-05-11T14:43:57.990Z,34.60
2019-05-11T14:46:27.856Z,33.90
2019-05-11T14:48:58.500Z,34.20
2019-05-11T14:51:28.221Z,34.20
2019-05-11T14:53:59.449Z,33.80
2019-05-11T14:56:29.237Z,33.90
2019-05-11T14:58:58.068Z,32.70
2019-05-11T15:01:28.650Z,32.50
2019-05-11T15:03:58.862Z,31.90
2019-05-11T15:06:27.950Z,31.50
2019-05-11T15:08:58.207Z,31.10
2019-05-11T15:11:28.046Z,31.40
2019-05-11T15:13:57.566Z,31.70
2019-05-11T15:16:27.907Z,31.20
2019-05-11T15:18:58.491Z,31.10
2019-05-11T15:21:28.322Z,30.80
2019-05-11T15:23:58.070Z,30.10
2019-05-11T15:26:27.985Z,29.90
2019-05-11T15:28:58.392Z,30.30
2019-05-11T15:31:27.845Z,29.40
2019-05-11T15:33:57.757Z,29.60
2019-05-11T15:36:28.417Z,29.30
2019-05-11T15:38:58.265Z,29.20
2019-05-11T15:41:28.496Z,29.30
2019-05-11T15:43:57.947Z,29.60
2019-05-11T15:46:28.213Z,29.40
2019-05-11T15:49:03.112Z,29.50
2019-05-11T15:51:29.088Z,29.50
2019-05-11T15:54:18.654Z,29.30
2019-05-11T15:56:47.428Z,29.30
2019-05-11T15:59:16.084Z,28.90
2019-05-11T16:02:05.579Z,28.80
2019-05-11T16:04:34.095Z,29.10
2019-05-11T16:07:03.687Z,28.60
2019-05-11T16:09:32.187Z,29.60
2019-05-11T16:12:02.487Z,28.90
2019-05-11T16:14:33.347Z,29.00
2019-05-11T16:17:03.189Z,29.00
2019-05-11T16:19:31.687Z,29.00
2019-05-11T16:22:00.400Z,28.90
2019-05-11T16:24:28.913Z,28.70
2019-05-11T16:26:58.274Z,29.00
2019-05-11T16:29:28.035Z,29.20
2019-05-11T16:31:57.828Z,29.20
2019-05-11T16:34:27.762Z,29.20
2019-05-11T16:36:58.095Z,29.20
2019-05-11T16:39:27.967Z,29.10
2019-05-11T16:41:57.846Z,28.90
2019-05-11T16:44:26.564Z,29.20
2019-05-11T16:46:58.652Z,29.40
2019-05-11T16:49:32.130Z,29.30
2019-05-11T16:51:57.831Z,29.50
2019-05-11T16:54:28.094Z,29.40
2019-05-11T16:56:57.931Z,28.70
2019-05-11T16:59:28.441Z,28.40
2019-05-11T17:01:58.606Z,29.30
2019-05-11T17:04:31.011Z,28.90
2019-05-11T17:06:57.924Z,29.00
2019-05-11T17:09:26.545Z,28.50
2019-05-11T17:12:14.435Z,28.30
2019-05-11T17:14:58.391Z,28.60
2019-05-11T17:17:27.945Z,28.90
2019-05-11T17:19:58.925Z,28.80
2019-05-11T17:22:28.193Z,28.80
2019-05-11T17:24:58.951Z,28.80
2019-05-11T17:27:28.503Z,28.60
2019-05-11T17:29:59.239Z,28.90
2019-05-11T17:32:29.348Z,29.40
2019-05-11T17:34:58.171Z,29.30
2019-05-11T17:37:28.548Z,29.60
2019-05-11T17:39:58.734Z,29.80
2019-05-11T17:42:30.420Z,30.00
2019-05-11T17:44:59.004Z,30.60
2019-05-11T17:47:28.192Z,30.80
2019-05-11T17:50:03.259Z,31.10
2019-05-11T17:52:28.236Z,31.90
2019-05-11T17:54:56.844Z,32.90
2019-05-11T17:57:27.732Z,34.10
2019-05-11T17:59:57.912Z,35.20
2019-05-11T18:02:28.850Z,36.10
2019-05-11T18:04:58.395Z,37.00
2019-05-11T18:07:30.678Z,38.00
2019-05-11T18:09:58.654Z,38.60
2019-05-11T18:12:28.812Z,39.00
2019-05-11T18:14:58.922Z,39.80
2019-05-11T18:17:27.454Z,40.70
2019-05-11T18:19:59.248Z,41.60
2019-05-11T18:22:28.359Z,42.10
2019-05-11T18:24:58.123Z,42.50
2019-05-11T18:27:27.886Z,42.80
2019-05-11T18:29:58.069Z,43.20
2019-05-11T18:32:28.381Z,43.70
2019-05-11T18:34:58.931Z,44.20
2019-05-11T18:37:28.857Z,44.20
2019-05-11T18:39:58.516Z,44.60
2019-05-11T18:42:28.881Z,44.90
2019-05-11T18:44:59.602Z,44.90
2019-05-11T18:47:29.800Z,45.80
2019-05-11T18:49:58.806Z,46.00
2019-05-11T18:52:27.485Z,46.30
2019-05-11T18:54:57.759Z,47.00
2019-05-11T18:57:27.755Z,47.50
2019-05-11T19:00:08.167Z,47.90
2019-05-11T19:02:38.516Z,48.40
2019-05-11T19:05:08.539Z,48.50
2019-05-11T19:07:38.755Z,49.10
2019-05-11T19:10:10.541Z,49.40
2019-05-11T19:12:39.280Z,49.60
2019-05-11T19:15:08.613Z,49.90
2019-05-11T19:17:39.983Z,50.40
2019-05-11T19:20:09.196Z,50.50
2019-05-11T19:22:38.543Z,50.60
2019-05-11T19:25:09.098Z,50.80
2019-05-11T19:27:38.013Z,51.40
2019-05-11T19:30:08.255Z,51.70
2019-05-11T19:32:38.265Z,51.90
2019-05-11T19:35:08.950Z,52.00
2019-05-11T19:37:38.904Z,52.20
2019-05-11T19:40:09.393Z,52.40
2019-05-11T19:42:54.472Z,52.60
2019-05-11T19:45:24.360Z,53.20
2019-05-11T19:47:57.850Z,53.30
2019-05-11T19:50:30.913Z,53.60
2019-05-11T19:53:02.671Z,53.60
2019-05-11T19:55:33.433Z,53.80
2019-05-11T19:58:05.102Z,54.00
2019-05-11T20:00:33.667Z,54.10
2019-05-11T20:03:04.292Z,54.40
2019-05-11T20:05:32.796Z,54.80
2019-05-11T20:08:02.579Z,55.00
2019-05-11T20:10:31.028Z,55.10
2019-05-11T20:13:00.358Z,55.20
2019-05-11T20:15:29.007Z,55.40
2019-05-11T20:17:58.641Z,55.70
2019-05-11T20:20:29.019Z,55.80
2019-05-11T20:22:58.486Z,56.10
2019-05-11T20:25:28.747Z,56.30
2019-05-11T20:27:58.506Z,56.40
2019-05-11T20:30:31.140Z,57.10
2019-05-11T20:32:59.663Z,56.80
2019-05-11T20:35:32.411Z,57.20
2019-05-11T20:38:08.488Z,57.40
2019-05-11T20:40:41.295Z,57.50
2019-05-11T20:43:13.913Z,57.60
2019-05-11T20:45:42.443Z,58.50
2019-05-11T20:48:10.916Z,57.90
2019-05-11T20:50:40.900Z,58.10
2019-05-11T20:53:09.552Z,58.30
2019-05-11T20:55:38.019Z,58.50
2019-05-11T20:58:08.468Z,58.70
2019-05-11T21:00:38.430Z,59.00
2019-05-11T21:03:07.996Z,59.20
2019-05-11T21:05:39.450Z,59.30
2019-05-11T21:08:08.530Z,59.60
2019-05-11T21:10:38.893Z,59.60
2019-05-11T21:13:08.738Z,59.80
2019-05-11T21:15:38.500Z,59.90
2019-05-11T21:18:08.644Z,60.00
2019-05-11T21:20:38.048Z,60.10
2019-05-11T21:23:08.240Z,60.30
2019-05-11T21:25:37.779Z,60.40
2019-05-11T21:28:08.461Z,60.40
2019-05-11T21:30:39.906Z,60.50
2019-05-11T21:33:08.650Z,60.60
2019-05-11T21:35:38.882Z,60.50
2019-05-11T21:38:08.967Z,60.60
2019-05-11T21:40:38.297Z,60.60
2019-05-11T21:43:08.777Z,60.80
2019-05-11T21:45:40.344Z,61.10
2019-05-11T21:48:10.357Z,61.40
2019-05-11T21:50:39.199Z,61.50
2019-05-11T21:53:10.511Z,61.60
2019-05-11T21:55:37.915Z,61.70
2019-05-11T21:58:08.888Z,61.80
2019-05-11T22:00:38.799Z,61.90
2019-05-11T22:03:09.905Z,62.20
2019-05-11T22:05:38.122Z,62.20
2019-05-11T22:08:08.592Z,62.40
2019-05-11T22:10:38.526Z,62.60
2019-05-11T22:13:07.665Z,62.60
2019-05-11T22:15:38.373Z,62.80
2019-05-11T22:18:08.040Z,62.90
2019-05-11T22:20:38.085Z,63.00
2019-05-11T22:23:10.460Z,63.10
2019-05-11T22:25:38.697Z,63.30
2019-05-11T22:28:08.397Z,63.40
2019-05-11T22:30:39.284Z,63.60
2019-05-11T22:33:08.794Z,63.70
2019-05-11T22:35:38.509Z,63.90
2019-05-11T22:38:08.451Z,64.10
2019-05-11T22:40:38.602Z,64.20
2019-05-11T22:43:09.350Z,65.10
2019-05-11T22:45:38.537Z,64.60
2019-05-11T22:48:07.924Z,64.60
2019-05-11T22:50:38.170Z,64.70
2019-05-11T22:53:08.690Z,64.70
2019-05-11T22:55:38.151Z,64.80
2019-05-11T22:58:08.616Z,64.90
2019-05-11T23:00:42.596Z,64.90
2019-05-11T23:03:11.252Z,65.10
2019-05-11T23:05:40.813Z,65.10
2019-05-11T23:08:09.409Z,65.30
2019-05-11T23:10:38.724Z,65.50
2019-05-11T23:13:11.221Z,65.50
2019-05-11T23:15:40.382Z,65.70
2019-05-11T23:18:11.282Z,65.90
2019-05-11T23:20:40.158Z,66.00
2019-05-11T23:23:09.146Z,66.20
2019-05-11T23:25:39.489Z,66.30
2019-05-11T23:28:09.543Z,66.40
2019-05-11T23:30:38.929Z,66.40
2019-05-11T23:33:08.320Z,66.60
2019-05-11T23:35:38.563Z,66.70
2019-05-11T23:38:08.241Z,66.80
2019-05-11T23:40:38.269Z,66.90
2019-05-11T23:43:08.611Z,67.00
2019-05-11T23:45:38.597Z,67.00
2019-05-11T23:48:07.184Z,67.10
2019-05-11T23:50:38.643Z,67.20
2019-05-11T23:53:10.072Z,67.20
2019-05-11T23:55:38.064Z,67.20
2019-05-11T23:58:08.162Z,67.20
